Time;durP1;ratioP1;P1;durP2;ratioP2;P2;SDS_P1;SDS_P2;PMS_P1;PMS_P2;Temp;Humidity;BMP_temperature;BMP_pressure;BME280_temperature;BME280_humidity;BME280_pressure;Samples;Min_cycle;Max_cycle;Signal;HPM_P1;HPM_P2
2022/08/23 00:00:33;;;;;;;4.97;3.20;;;;;;;;;;5093802;28;20149;-84
2022/08/23 00:02:59;;;;;;;5.25;3.67;;;;;;;;;;5093438;28;20469;-82
2022/08/23 00:05:25;;;;;;;5.82;3.30;;;;;;;;;;5091939;28;20335;-85
2022/08/23 00:07:51;;;;;;;4.65;3.22;;;;;;;;;;5093329;28;20024;-82
2022/08/23 00:10:17;;;;;;;5.60;3.22;;;;;;;;;;5091861;28;20474;-82
2022/08/23 00:12:44;;;;;;;4.55;3.20;;;;;;;;;;5093321;28;20069;-82
2022/08/23 00:15:11;;;;;;;4.78;3.10;;;;;;;;;;5078857;28;20036;-82
2022/08/23 00:17:38;;;;;;;3.60;2.92;;;;;;;;;;5081719;28;20021;-84
2022/08/23 00:20:08;;;;;;;5.28;3.35;;;;;;;;;;5088058;28;20367;-82
2022/08/23 00:22:35;;;;;;;4.05;3.17;;;;;;;;;;5091387;28;20028;-82
2022/08/23 00:25:01;;;;;;;6.18;3.13;;;;;;;;;;5076893;28;20025;-85
2022/08/23 00:27:27;;;;;;;5.25;3.47;;;;;;;;;;5072477;28;20475;-82
2022/08/23 00:29:54;;;;;;;4.40;2.88;;;;;;;;;;5071296;28;20032;-85
2022/08/23 00:32:28;;;;;;;4.80;3.08;;;;;;;;;;5072722;28;20074;-82
2022/08/23 00:34:54;;;;;;;4.88;3.38;;;;;;;;;;5072657;28;20020;-82
2022/08/23 00:37:20;;;;;;;4.25;3.22;;;;;;;;;;5071717;28;20016;-86
2022/08/23 00:39:46;;;;;;;4.97;3.55;;;;;;;;;;5087640;28;20035;-83
2022/08/23 00:47:44;;;;;;;6.30;3.40;;;;;;;;;;5093517;28;20481;-82
2022/08/23 00:50:19;;;;;;;5.22;3.08;;;;;;;;;;5092346;28;20039;-82
2022/08/23 00:52:50;;;;;;;4.53;3.03;;;;;;;;;;5092143;28;20034;-81
2022/08/23 00:55:16;;;;;;;5.43;3.17;;;;;;;;;;5089935;28;20050;-83
2022/08/23 00:57:42;;;;;;;4.40;3.45;;;;;;;;;;5090626;28;20024;-82
2022/08/23 01:00:12;;;;;;;4.97;3.13;;;;;;;;;;5091213;28;20121;-85
2022/08/23 01:02:38;;;;;;;5.13;3.28;;;;;;;;;;5091862;28;20031;-85
2022/08/23 01:05:05;;;;;;;3.97;3.03;;;;;;;;;;5090732;28;20074;-82
2022/08/23 01:07:36;;;;;;;5.20;3.38;;;;;;;;;;5092650;28;20106;-82
2022/08/23 01:10:04;;;;;;;4.38;3.20;;;;;;;;;;5090183;28;20031;-82
2022/08/23 01:12:39;;;;;;;6.18;3.30;;;;;;;;;;5090823;28;20377;-82
2022/08/23 01:15:15;;;;;;;3.63;3.10;;;;;;;;;;5091971;28;20255;-82
2022/08/23 01:17:44;;;;;;;6.18;3.30;;;;;;;;;;5096066;28;20055;-83
2022/08/23 01:20:12;;;;;;;3.97;3.13;;;;;;;;;;5093245;28;20351;-82
2022/08/23 01:22:59;;;;;;;5.38;3.10;;;;;;;;;;5079031;28;20060;-82
2022/08/23 01:25:28;;;;;;;3.40;3.10;;;;;;;;;;5094915;28;20032;-81
2022/08/23 01:27:55;;;;;;;;;;;;;;;;;;5096231;28;20256;-82
2022/08/23 01:30:23;;;;;;;4.20;2.83;;;;;;;;;;5094781;28;20358;-82
2022/08/23 01:32:52;;;;;;;4.43;2.88;;;;;;;;;;5094757;28;20051;-82
2022/08/23 01:35:19;;;;;;;4.75;3.28;;;;;;;;;;5094724;28;20540;-82
2022/08/23 01:37:45;;;;;;;4.40;3.13;;;;;;;;;;5094758;28;20020;-82
2022/08/23 01:40:12;;;;;;;3.47;2.80;;;;;;;;;;5095972;28;20073;-82
2022/08/23 01:42:41;;;;;;;4.68;3.15;;;;;;;;;;5095703;28;20082;-81
2022/08/23 01:45:09;;;;;;;4.85;2.92;;;;;;;;;;5095023;28;20119;-82
2022/08/23 01:47:34;;;;;;;4.03;2.90;;;;;;;;;;5095011;28;20059;-82
2022/08/23 01:50:01;;;;;;;3.47;2.85;;;;;;;;;;5090856;28;20774;-82
2022/08/23 01:52:29;;;;;;;4.05;2.97;;;;;;;;;;5096216;28;20070;-82
2022/08/23 01:54:56;;;;;;;4.75;2.88;;;;;;;;;;5093838;28;20036;-82
2022/08/23 01:57:22;;;;;;;4.75;3.10;;;;;;;;;;5094744;28;20552;-82
2022/08/23 01:59:48;;;;;;;4.32;2.95;;;;;;;;;;5094721;28;20157;-82
2022/08/23 02:02:14;;;;;;;4.45;2.90;;;;;;;;;;5095449;28;20091;-82
2022/08/23 02:04:41;;;;;;;3.33;2.95;;;;;;;;;;5093656;28;20020;-82
2022/08/23 02:07:07;;;;;;;5.07;2.83;;;;;;;;;;5094429;28;20118;-85
2022/08/23 02:09:33;;;;;;;5.97;2.95;;;;;;;;;;5095080;28;20112;-82
2022/08/23 02:11:59;;;;;;;4.03;2.63;;;;;;;;;;5095842;28;20036;-83
2022/08/23 02:14:25;;;;;;;4.47;2.50;;;;;;;;;;5095150;28;22304;-84
2022/08/23 02:16:52;;;;;;;3.25;2.42;;;;;;;;;;5094356;28;20028;-83
2022/08/23 02:19:19;;;;;;;3.85;2.47;;;;;;;;;;5089011;28;20123;-82
2022/08/23 02:21:45;;;;;;;4.47;2.67;;;;;;;;;;5091694;28;20035;-82
2022/08/23 02:24:16;;;;;;;5.38;2.80;;;;;;;;;;5095245;28;20051;-82
2022/08/23 02:26:44;;;;;;;4.35;3.03;;;;;;;;;;5094687;28;20103;-83
2022/08/23 02:29:10;;;;;;;;;;;;;;;;;;5095551;28;20382;-83
2022/08/23 02:31:36;;;;;;;4.30;2.83;;;;;;;;;;5094136;28;19910;-82
2022/08/23 02:34:03;;;;;;;3.85;2.65;;;;;;;;;;5094250;28;20328;-81
2022/08/23 02:36:29;;;;;;;4.30;2.88;;;;;;;;;;5094132;28;20036;-81
2022/08/23 02:38:55;;;;;;;3.85;2.65;;;;;;;;;;5095218;28;20444;-82
2022/08/23 02:41:21;;;;;;;3.63;2.72;;;;;;;;;;5094828;28;20031;-82
2022/08/23 02:43:51;;;;;;;5.30;3.00;;;;;;;;;;5094933;28;20020;-83
2022/08/23 02:46:17;;;;;;;4.00;3.17;;;;;;;;;;5089919;28;20020;-82
2022/08/23 02:48:42;;;;;;;5.70;2.85;;;;;;;;;;5078419;28;20039;-81
2022/08/23 02:51:09;;;;;;;5.25;3.20;;;;;;;;;;5077300;28;20380;-84
2022/08/23 02:53:35;;;;;;;4.35;2.67;;;;;;;;;;5081268;28;20024;-81
2022/08/23 02:56:01;;;;;;;4.43;2.70;;;;;;;;;;5080907;28;20166;-81
2022/08/23 02:58:27;;;;;;;5.15;2.90;;;;;;;;;;5074533;28;20024;-82
2022/08/23 03:00:53;;;;;;;4.68;3.05;;;;;;;;;;5085423;28;20016;-82
2022/08/23 03:03:20;;;;;;;3.30;2.70;;;;;;;;;;5082621;28;20023;-82
2022/08/23 03:05:46;;;;;;;3.33;2.70;;;;;;;;;;5083086;28;20012;-82
2022/08/23 03:08:12;;;;;;;5.38;2.72;;;;;;;;;;5082724;28;20085;-82
2022/08/23 03:10:42;;;;;;;4.35;2.70;;;;;;;;;;5074365;28;20025;-83
2022/08/23 03:13:08;;;;;;;5.80;2.78;;;;;;;;;;5074499;28;20028;-82
2022/08/23 03:15:34;;;;;;;4.03;2.80;;;;;;;;;;5086191;28;20032;-84
2022/08/23 03:18:00;;;;;;;3.65;2.88;;;;;;;;;;5093124;28;20021;-83
2022/08/23 03:20:27;;;;;;;3.55;2.88;;;;;;;;;;5092544;28;20530;-83
2022/08/23 03:22:53;;;;;;;3.90;2.60;;;;;;;;;;5094723;28;20497;-82
2022/08/23 03:25:19;;;;;;;3.10;2.50;;;;;;;;;;5094343;28;20085;-82
2022/08/23 03:27:45;;;;;;;4.18;2.88;;;;;;;;;;5092342;28;20081;-82
2022/08/23 03:30:11;;;;;;;4.57;3.15;;;;;;;;;;5090723;28;20028;-82
2022/08/23 03:32:37;;;;;;;4.13;2.75;;;;;;;;;;5092835;28;20099;-82
2022/08/23 03:35:04;;;;;;;4.95;3.08;;;;;;;;;;5091900;28;20126;-82
2022/08/23 03:37:30;;;;;;;3.10;2.70;;;;;;;;;;5094285;28;20028;-82
2022/08/23 03:39:57;;;;;;;6.05;2.80;;;;;;;;;;5093582;28;20027;-83
2022/08/23 03:42:23;;;;;;;4.00;2.90;;;;;;;;;;5092598;28;20470;-82
2022/08/23 03:44:49;;;;;;;3.38;2.70;;;;;;;;;;5091317;28;20025;-82
2022/08/23 03:47:15;;;;;;;3.05;2.70;;;;;;;;;;5093108;28;20497;-82
2022/08/23 03:49:41;;;;;;;4.53;2.78;;;;;;;;;;5093528;28;20150;-81
2022/08/23 03:52:07;;;;;;;4.03;2.90;;;;;;;;;;5093788;28;20024;-82
2022/08/23 03:54:33;;;;;;;5.00;2.90;;;;;;;;;;5093178;28;20030;-82
2022/08/23 03:57:04;;;;;;;5.82;2.70;;;;;;;;;;5092362;28;20039;-82
2022/08/23 03:59:31;;;;;;;7.15;3.00;;;;;;;;;;5088913;28;20474;-82
2022/08/23 04:01:58;;;;;;;3.97;3.25;;;;;;;;;;5071556;28;20021;-83
2022/08/23 04:04:24;;;;;;;3.80;2.78;;;;;;;;;;5071453;28;20467;-82
2022/08/23 04:06:49;;;;;;;4.68;3.72;;;;;;;;;;5071634;28;20021;-83
2022/08/23 04:09:16;;;;;;;4.63;3.80;;;;;;;;;;5073332;28;20082;-83
2022/08/23 04:11:43;;;;;;;3.75;3.15;;;;;;;;;;5073807;28;20031;-83
2022/08/23 04:14:10;;;;;;;4.80;3.00;;;;;;;;;;5075969;28;20032;-82
2022/08/23 04:16:36;;;;;;;3.60;2.45;;;;;;;;;;5077050;28;20059;-82
2022/08/23 04:19:06;;;;;;;3.72;2.65;;;;;;;;;;5085025;28;20023;-82
2022/08/23 04:21:33;;;;;;;3.35;2.47;;;;;;;;;;5080212;28;20024;-83
2022/08/23 04:23:59;;;;;;;3.08;2.53;;;;;;;;;;5078458;28;20028;-84
2022/08/23 04:26:25;;;;;;;3.38;2.50;;;;;;;;;;5075053;28;20045;-82
2022/08/23 04:28:51;;;;;;;3.17;2.63;;;;;;;;;;5084921;28;20021;-82
2022/08/23 04:31:18;;;;;;;2.88;2.05;;;;;;;;;;5081407;28;20670;-83
2022/08/23 04:33:44;;;;;;;3.53;2.45;;;;;;;;;;5082620;28;20485;-82
2022/08/23 04:36:10;;;;;;;3.33;2.28;;;;;;;;;;5087021;28;20035;-83
2022/08/23 04:38:36;;;;;;;3.22;2.15;;;;;;;;;;5092214;28;20377;-84
2022/08/23 04:43:47;;;;;;;3.97;2.30;;;;;;;;;;5093013;28;20039;-83
2022/08/23 04:46:16;;;;;;;5.95;2.47;;;;;;;;;;5092125;28;20020;-83
2022/08/23 04:48:43;;;;;;;3.30;2.15;;;;;;;;;;5091688;28;20031;-83
2022/08/23 04:51:09;;;;;;;3.78;2.20;;;;;;;;;;5092756;28;20078;-82
2022/08/23 04:53:35;;;;;;;6.18;2.50;;;;;;;;;;5091647;28;20024;-86
2022/08/23 04:56:02;;;;;;;3.50;2.28;;;;;;;;;;5082586;28;20032;-83
2022/08/23 04:58:28;;;;;;;4.50;2.17;;;;;;;;;;5071879;28;20059;-83
2022/08/23 05:00:55;;;;;;;4.65;2.60;;;;;;;;;;5073959;28;20020;-82
2022/08/23 05:03:21;;;;;;;4.35;2.75;;;;;;;;;;5072236;28;20025;-82
2022/08/23 05:05:47;;;;;;;4.47;2.30;;;;;;;;;;5070064;28;20074;-82
2022/08/23 05:08:13;;;;;;;4.57;2.50;;;;;;;;;;5071065;28;20032;-83
2022/08/23 05:10:39;;;;;;;5.38;2.55;;;;;;;;;;5072328;28;20497;-82
2022/08/23 05:13:05;;;;;;;4.90;2.30;;;;;;;;;;5072668;28;20031;-83
2022/08/23 05:15:31;;;;;;;6.45;2.45;;;;;;;;;;5072287;28;20028;-82
2022/08/23 05:17:57;;;;;;;3.75;2.40;;;;;;;;;;5079318;28;20299;-83
2022/08/23 05:20:23;;;;;;;4.15;2.67;;;;;;;;;;5083216;28;20107;-82
2022/08/23 05:22:49;;;;;;;4.55;3.10;;;;;;;;;;5073151;28;20532;-84
2022/08/23 05:25:15;;;;;;;5.28;3.22;;;;;;;;;;5072401;28;20028;-82
2022/08/23 05:27:41;;;;;;;4.25;2.50;;;;;;;;;;5084108;28;20414;-82
2022/08/23 05:30:07;;;;;;;3.80;2.20;;;;;;;;;;5081109;28;20047;-82
2022/08/23 05:32:33;;;;;;;4.68;3.00;;;;;;;;;;5088631;28;20016;-83
2022/08/23 05:35:00;;;;;;;3.83;2.70;;;;;;;;;;5078058;28;20024;-83
2022/08/23 05:37:26;;;;;;;4.53;2.25;;;;;;;;;;5076441;28;20072;-83
2022/08/23 05:39:52;;;;;;;4.05;2.40;;;;;;;;;;5078665;28;20039;-82
2022/08/23 05:42:18;;;;;;;3.10;2.10;;;;;;;;;;5073731;28;20097;-83
2022/08/23 05:44:44;;;;;;;4.18;2.20;;;;;;;;;;5076107;28;20036;-83
2022/08/23 05:47:11;;;;;;;3.78;2.40;;;;;;;;;;5078046;28;20024;-84
2022/08/23 05:49:37;;;;;;;3.58;1.88;;;;;;;;;;5075437;28;20039;-83
2022/08/23 05:52:04;;;;;;;4.55;2.25;;;;;;;;;;5075154;28;20016;-83
2022/08/23 05:54:30;;;;;;;3.15;1.90;;;;;;;;;;5080384;28;20021;-84
2022/08/23 05:56:56;;;;;;;3.83;1.95;;;;;;;;;;5072864;28;20030;-84
2022/08/23 05:59:22;;;;;;;3.88;1.92;;;;;;;;;;5077387;28;20027;-84
2022/08/23 06:01:48;;;;;;;3.65;1.90;;;;;;;;;;5082571;28;20032;-83
2022/08/23 06:04:15;;;;;;;4.38;1.98;;;;;;;;;;5094412;28;20016;-84
2022/08/23 06:06:42;;;;;;;5.30;2.58;;;;;;;;;;5091585;28;20051;-84
2022/08/23 06:09:10;;;;;;;5.25;2.20;;;;;;;;;;5096228;28;20051;-84
2022/08/23 06:11:36;;;;;;;5.47;2.60;;;;;;;;;;5095248;28;20420;-82
2022/08/23 06:14:03;;;;;;;5.57;2.33;;;;;;;;;;5094581;28;20469;-83
2022/08/23 06:16:33;;;;;;;4.30;1.98;;;;;;;;;;5095111;28;20390;-84
2022/08/23 06:19:01;;;;;;;4.43;2.35;;;;;;;;;;5095741;28;20024;-83
2022/08/23 06:21:27;;;;;;;4.38;2.00;;;;;;;;;;5093117;28;20027;-84
2022/08/23 06:23:53;;;;;;;5.20;2.17;;;;;;;;;;5094176;28;20028;-83
2022/08/23 06:26:21;;;;;;;4.28;2.10;;;;;;;;;;5094776;28;20051;-87
2022/08/23 06:28:48;;;;;;;3.72;1.98;;;;;;;;;;5095711;28;20142;-86
2022/08/23 06:31:14;;;;;;;3.33;1.98;;;;;;;;;;5093970;28;20016;-85
2022/08/23 06:33:41;;;;;;;3.25;1.63;;;;;;;;;;5095366;28;20028;-88
2022/08/23 06:36:08;;;;;;;2.50;1.77;;;;;;;;;;5092236;28;20036;-83
2022/08/23 06:38:34;;;;;;;2.90;1.92;;;;;;;;;;5092998;28;20078;-87
2022/08/23 06:41:05;;;;;;;4.15;1.92;;;;;;;;;;5091646;28;20035;-85
2022/08/23 06:43:31;;;;;;;3.58;1.90;;;;;;;;;;5074997;28;20085;-86
2022/08/23 06:46:14;;;;;;;3.65;2.13;;;;;;;;;;5086862;28;20031;-83
2022/08/23 06:48:41;;;;;;;3.55;1.73;;;;;;;;;;5084086;28;20021;-83
2022/08/23 06:51:14;;;;;;;3.60;1.90;;;;;;;;;;5079493;28;20306;-84
2022/08/23 06:53:40;;;;;;;4.85;1.90;;;;;;;;;;5078324;28;20469;-85
2022/08/23 06:56:06;;;;;;;3.50;1.80;;;;;;;;;;5078053;28;20078;-87
2022/08/23 06:58:32;;;;;;;5.40;2.03;;;;;;;;;;5080574;28;20502;-84
2022/08/23 07:01:11;;;;;;;5.40;1.88;;;;;;;;;;5080967;28;20020;-86
2022/08/23 07:03:37;;;;;;;4.95;1.83;;;;;;;;;;5082915;28;20031;-83
2022/08/23 07:06:03;;;;;;;2.60;1.67;;;;;;;;;;5077442;28;20020;-83
2022/08/23 07:08:29;;;;;;;3.35;1.63;;;;;;;;;;5078189;28;20021;-87
2022/08/23 07:10:56;;;;;;;2.95;1.77;;;;;;;;;;5081780;28;20020;-85
2022/08/23 07:13:22;;;;;;;3.78;1.90;;;;;;;;;;5080508;28;20036;-85
2022/08/23 07:15:49;;;;;;;3.42;2.10;;;;;;;;;;5077407;28;20033;-82
2022/08/23 07:18:15;;;;;;;3.13;1.83;;;;;;;;;;5088086;28;20020;-83
2022/08/23 07:20:41;;;;;;;3.83;2.00;;;;;;;;;;5085568;28;20031;-84
2022/08/23 07:23:07;;;;;;;3.08;1.52;;;;;;;;;;5082559;28;20131;-83
2022/08/23 07:25:32;;;;;;;2.88;1.70;;;;;;;;;;5076065;28;20028;-85
2022/08/23 07:28:00;;;;;;;3.22;1.50;;;;;;;;;;5090206;28;20109;-83
2022/08/23 07:30:26;;;;;;;3.88;2.10;;;;;;;;;;5092090;28;20028;-83
2022/08/23 07:32:52;;;;;;;3.95;1.80;;;;;;;;;;5094022;28;20027;-83
2022/08/23 07:35:18;;;;;;;3.05;1.85;;;;;;;;;;5092567;28;20036;-83
2022/08/23 07:37:44;;;;;;;6.25;2.80;;;;;;;;;;5085870;28;20383;-83
2022/08/23 07:40:11;;;;;;;4.00;1.90;;;;;;;;;;5073471;28;20036;-84
2022/08/23 07:42:38;;;;;;;3.10;1.80;;;;;;;;;;5073490;28;20131;-82
2022/08/23 07:45:05;;;;;;;3.83;1.70;;;;;;;;;;5080565;28;20020;-83
2022/08/23 07:47:31;;;;;;;4.38;2.00;;;;;;;;;;5092377;28;20255;-83
2022/08/23 07:49:57;;;;;;;2.95;1.67;;;;;;;;;;5093360;28;20447;-87
2022/08/23 07:52:23;;;;;;;2.78;1.70;;;;;;;;;;5078012;28;20041;-83
2022/08/23 07:54:49;;;;;;;3.30;1.83;;;;;;;;;;5071747;28;20029;-85
2022/08/23 07:57:15;;;;;;;4.60;1.95;;;;;;;;;;5089191;28;20123;-85
2022/08/23 07:59:41;;;;;;;3.53;1.73;;;;;;;;;;5092456;28;20466;-83
2022/08/23 08:02:07;;;;;;;4.97;2.05;;;;;;;;;;5093079;28;20028;-83
2022/08/23 08:04:33;;;;;;;4.25;1.77;;;;;;;;;;5093494;28;20054;-82
2022/08/23 08:06:59;;;;;;;3.60;1.50;;;;;;;;;;5080887;28;20047;-83
2022/08/23 08:09:25;;;;;;;5.25;2.03;;;;;;;;;;5071821;28;20016;-84
2022/08/23 08:11:51;;;;;;;4.70;1.70;;;;;;;;;;5072646;28;20378;-83
2022/08/23 08:14:17;;;;;;;5.38;1.60;;;;;;;;;;5078610;28;20025;-84
2022/08/23 08:16:46;;;;;;;3.70;1.70;;;;;;;;;;5084689;28;20038;-83
2022/08/23 08:19:13;;;;;;;4.50;2.20;;;;;;;;;;5071815;28;20028;-83
2022/08/23 08:21:40;;;;;;;4.68;1.70;;;;;;;;;;5082091;28;20106;-84
2022/08/23 08:24:07;;;;;;;2.65;1.33;;;;;;;;;;5092937;28;20034;-83
2022/08/23 08:26:33;;;;;;;6.65;2.00;;;;;;;;;;5089378;28;20048;-83
2022/08/23 08:28:59;;;;;;;2.60;1.50;;;;;;;;;;5079135;28;20533;-82
2022/08/23 08:31:26;;;;;;;5.95;1.83;;;;;;;;;;5083688;28;20101;-83
2022/08/23 08:33:52;;;;;;;3.35;1.70;;;;;;;;;;5082156;28;20051;-84
2022/08/23 08:36:29;;;;;;;3.28;1.50;;;;;;;;;;5077740;28;20035;-86
2022/08/23 08:38:55;;;;;;;3.38;1.60;;;;;;;;;;5079150;28;20009;-84
2022/08/23 08:41:26;;;;;;;3.63;1.30;;;;;;;;;;5075277;28;20085;-84
2022/08/23 08:44:18;;;;;;;3.60;1.83;;;;;;;;;;5082580;28;20731;-83
2022/08/23 08:46:46;;;;;;;3.70;1.50;;;;;;;;;;5089710;28;20111;-82
2022/08/23 08:49:18;;;;;;;4.43;1.77;;;;;;;;;;5091310;28;20028;-84
2022/08/23 08:51:50;;;;;;;2.28;1.45;;;;;;;;;;5091541;28;20389;-84
2022/08/23 08:54:18;;;;;;;2.28;1.40;;;;;;;;;;5071299;28;20127;-82
2022/08/23 08:56:46;;;;;;;2.63;1.60;;;;;;;;;;5072788;28;20117;-82
2022/08/23 08:59:14;;;;;;;3.50;1.50;;;;;;;;;;5091248;28;20462;-84
2022/08/23 09:01:41;;;;;;;5.88;2.00;;;;;;;;;;5090359;28;20105;-84
2022/08/23 09:04:07;;;;;;;3.05;1.58;;;;;;;;;;5091127;28;20305;-83
2022/08/23 09:06:48;;;;;;;3.97;1.60;;;;;;;;;;5091882;28;20032;-83
2022/08/23 09:09:17;;;;;;;2.75;1.50;;;;;;;;;;5090548;28;20020;-82
2022/08/23 09:11:46;;;;;;;2.35;1.50;;;;;;;;;;5075869;28;20752;-84
2022/08/23 09:14:21;;;;;;;3.00;1.60;;;;;;;;;;5077348;28;20032;-82
2022/08/23 09:16:47;;;;;;;1.58;1.30;;;;;;;;;;5078483;28;20040;-84
2022/08/23 09:19:13;;;;;;;3.20;1.52;;;;;;;;;;5079075;28;20397;-84
2022/08/23 09:21:40;;;;;;;4.72;1.42;;;;;;;;;;5083162;28;20020;-83
2022/08/23 09:24:06;;;;;;;1.95;1.30;;;;;;;;;;5088582;28;20103;-83
2022/08/23 09:26:32;;;;;;;2.67;1.40;;;;;;;;;;5083050;28;20144;-84
2022/08/23 09:29:04;;;;;;;5.05;1.58;;;;;;;;;;5089640;28;20020;-84
2022/08/23 09:31:46;;;;;;;3.65;1.70;;;;;;;;;;5074804;28;20382;-82
2022/08/23 09:34:16;;;;;;;3.15;1.48;;;;;;;;;;5071542;28;20017;-83
2022/08/23 09:36:42;;;;;;;1.88;1.40;;;;;;;;;;5080167;28;20095;-83
2022/08/23 09:39:23;;;;;;;2.70;1.58;;;;;;;;;;5094988;28;20118;-83
2022/08/23 09:41:49;;;;;;;2.17;1.15;;;;;;;;;;5077439;28;20067;-83
2022/08/23 09:44:29;;;;;;;2.60;1.45;;;;;;;;;;5094803;28;20028;-83
2022/08/23 09:47:04;;;;;;;2.42;1.40;;;;;;;;;;5095397;28;20020;-83
2022/08/23 09:49:30;;;;;;;3.72;1.63;;;;;;;;;;5095937;28;20466;-84
2022/08/23 09:51:59;;;;;;;3.40;1.38;;;;;;;;;;5093261;28;20046;-82
2022/08/23 09:54:29;;;;;;;4.60;1.77;;;;;;;;;;5083761;28;20463;-82
2022/08/23 09:56:57;;;;;;;2.72;1.35;;;;;;;;;;5090142;28;20115;-84
2022/08/23 09:59:25;;;;;;;4.10;1.70;;;;;;;;;;5095834;28;20505;-83
2022/08/23 10:01:52;;;;;;;;;;;;;;;;;;5087756;28;20272;-81
2022/08/23 10:04:22;;;;;;;3.25;1.55;;;;;;;;;;5095527;28;19904;-81
2022/08/23 10:06:48;;;;;;;3.42;1.40;;;;;;;;;;5088683;28;20471;-81
2022/08/23 10:09:22;;;;;;;3.78;1.52;;;;;;;;;;5078573;28;20024;-82
2022/08/23 10:11:48;;;;;;;5.10;1.75;;;;;;;;;;5077049;28;20033;-80
2022/08/23 10:14:16;;;;;;;4.13;1.35;;;;;;;;;;5082143;28;20016;-80
2022/08/23 10:17:01;;;;;;;1.55;1.42;;;;;;;;;;5080780;28;20428;-81
2022/08/23 10:19:46;;;;;;;4.38;1.48;;;;;;;;;;5084626;28;20043;-82
2022/08/23 10:22:12;;;;;;;7.35;1.80;;;;;;;;;;5086258;28;20615;-81
2022/08/23 10:24:50;;;;;;;2.95;1.77;;;;;;;;;;5092201;28;20032;-80
2022/08/23 10:30:11;;;;;;;3.70;1.30;;;;;;;;;;5094912;28;19912;-82
2022/08/23 10:32:37;;;;;;;2.38;1.38;;;;;;;;;;5093352;28;20019;-81
2022/08/23 10:35:06;;;;;;;2.72;1.50;;;;;;;;;;5094991;28;20028;-81
2022/08/23 10:37:45;;;;;;;3.58;1.58;;;;;;;;;;5093354;28;20079;-81
2022/08/23 10:40:16;;;;;;;3.10;1.33;;;;;;;;;;5095236;28;20476;-82
2022/08/23 10:43:01;;;;;;;4.28;1.40;;;;;;;;;;5092441;28;20030;-81
2022/08/23 10:45:29;;;;;;;2.83;1.27;;;;;;;;;;5090632;28;20031;-81
2022/08/23 10:47:58;;;;;;;2.28;1.33;;;;;;;;;;5077439;28;20214;-81
2022/08/23 10:50:25;;;;;;;2.97;1.60;;;;;;;;;;5076611;28;20054;-81
2022/08/23 10:52:57;;;;;;;3.45;1.55;;;;;;;;;;5077067;28;20039;-80
2022/08/23 10:55:34;;;;;;;3.53;1.30;;;;;;;;;;5084442;28;20103;-80
2022/08/23 10:58:02;;;;;;;2.58;1.20;;;;;;;;;;5077181;28;20090;-81
2022/08/23 11:00:30;;;;;;;3.25;1.17;;;;;;;;;;5080852;28;20077;-80
2022/08/23 11:03:07;;;;;;;3.53;1.30;;;;;;;;;;5078909;28;20024;-82
2022/08/23 11:05:34;;;;;;;2.05;1.10;;;;;;;;;;5074678;28;20037;-81
2022/08/23 11:08:00;;;;;;;2.30;1.40;;;;;;;;;;5077788;28;20370;-81
2022/08/23 11:10:26;;;;;;;2.17;1.02;;;;;;;;;;5074865;28;20301;-81
2022/08/23 11:12:55;;;;;;;2.60;1.35;;;;;;;;;;5079513;28;20474;-81
2022/08/23 11:15:30;;;;;;;2.78;1.20;;;;;;;;;;5079101;28;20492;-81
2022/08/23 11:17:59;;;;;;;2.25;1.25;;;;;;;;;;5074374;28;20059;-82
2022/08/23 11:20:44;;;;;;;3.30;1.45;;;;;;;;;;5076469;28;20032;-81
2022/08/23 11:23:12;;;;;;;3.97;1.40;;;;;;;;;;5077238;28;20532;-81
2022/08/23 11:25:40;;;;;;;3.67;1.40;;;;;;;;;;5075224;28;20466;-81
2022/08/23 11:28:25;;;;;;;3.28;1.30;;;;;;;;;;5078309;28;20079;-82
2022/08/23 11:30:57;;;;;;;1.75;1.30;;;;;;;;;;5081343;28;20034;-82
2022/08/23 11:33:33;;;;;;;3.13;1.40;;;;;;;;;;5081686;28;20035;-82
2022/08/23 11:36:08;;;;;;;3.85;1.27;;;;;;;;;;5088725;28;20028;-82
2022/08/23 11:38:46;;;;;;;1.38;1.08;;;;;;;;;;5078565;28;20103;-80
2022/08/23 11:41:18;;;;;;;2.80;1.00;;;;;;;;;;5087996;28;20405;-81
2022/08/23 11:43:48;;;;;;;3.00;1.20;;;;;;;;;;5080269;28;20455;-80
2022/08/23 11:46:14;;;;;;;3.03;1.30;;;;;;;;;;5086784;28;20035;-80
2022/08/23 11:48:42;;;;;;;4.30;1.05;;;;;;;;;;5077229;28;20020;-80
2022/08/23 11:51:23;;;;;;;2.42;0.90;;;;;;;;;;5076117;28;20363;-83
2022/08/23 11:53:52;;;;;;;3.63;1.17;;;;;;;;;;5076872;28;20036;-81
2022/08/23 11:56:32;;;;;;;2.50;1.20;;;;;;;;;;5077774;28;20048;-81
2022/08/23 11:59:01;;;;;;;3.08;1.02;;;;;;;;;;5076720;28;20032;-81
2022/08/23 12:01:30;;;;;;;1.42;1.00;;;;;;;;;;5076164;28;20028;-80
2022/08/23 12:03:58;;;;;;;1.45;1.00;;;;;;;;;;5075977;28;20031;-81
2022/08/23 12:06:39;;;;;;;1.92;1.08;;;;;;;;;;5073532;28;20035;-81
2022/08/23 12:09:11;;;;;;;1.88;0.90;;;;;;;;;;5077318;28;20082;-80
2022/08/23 12:11:52;;;;;;;2.00;1.00;;;;;;;;;;5075622;28;20523;-81
2022/08/23 12:14:30;;;;;;;1.75;0.77;;;;;;;;;;5076580;28;20028;-81
2022/08/23 12:17:01;;;;;;;3.92;1.10;;;;;;;;;;5074485;28;20119;-81
2022/08/23 12:19:47;;;;;;;1.90;0.95;;;;;;;;;;5076144;28;20489;-80
2022/08/23 12:22:15;;;;;;;1.35;0.85;;;;;;;;;;5078221;28;20051;-80
2022/08/23 12:24:43;;;;;;;3.65;1.08;;;;;;;;;;5076241;28;20044;-81
2022/08/23 12:27:32;;;;;;;2.08;0.93;;;;;;;;;;5083957;28;20052;-80
2022/08/23 12:29:58;;;;;;;2.00;0.90;;;;;;;;;;5082685;28;20093;-81
2022/08/23 12:32:32;;;;;;;1.35;0.90;;;;;;;;;;5089337;28;20193;-82
2022/08/23 12:35:17;;;;;;;1.73;1.00;;;;;;;;;;5088418;28;20020;-80
2022/08/23 12:37:58;;;;;;;1.48;0.90;;;;;;;;;;5085751;28;20085;-81
2022/08/23 12:40:36;;;;;;;1.63;0.90;;;;;;;;;;5072549;28;20024;-82
2022/08/23 12:43:04;;;;;;;2.35;1.00;;;;;;;;;;5069873;28;20025;-81
2022/08/23 12:45:37;;;;;;;1.42;0.93;;;;;;;;;;5079431;28;20028;-81
2022/08/23 12:48:06;;;;;;;2.58;1.00;;;;;;;;;;5076390;28;20019;-81
2022/08/23 12:50:34;;;;;;;1.33;0.90;;;;;;;;;;5079821;28;20031;-81
2022/08/23 12:53:01;;;;;;;1.55;0.90;;;;;;;;;;5076584;28;20030;-80
2022/08/23 12:55:32;;;;;;;1.70;0.80;;;;;;;;;;5073307;28;20443;-80
2022/08/23 12:57:59;;;;;;;2.25;0.90;;;;;;;;;;5074451;28;20036;-80
2022/08/23 13:00:33;;;;;;;1.10;0.93;;;;;;;;;;5076685;28;20058;-81
2022/08/23 13:03:21;;;;;;;2.03;0.90;;;;;;;;;;5075043;28;20027;-80
2022/08/23 13:05:49;;;;;;;1.90;1.20;;;;;;;;;;5079634;28;20064;-79
2022/08/23 13:08:20;;;;;;;1.30;0.80;;;;;;;;;;5072535;28;20024;-80
2022/08/23 13:10:46;;;;;;;1.92;0.85;;;;;;;;;;5081838;28;20119;-81
2022/08/23 13:13:14;;;;;;;1.92;0.80;;;;;;;;;;5073976;28;20378;-81
2022/08/23 13:15:55;;;;;;;1.23;0.80;;;;;;;;;;5085700;28;20454;-80
2022/08/23 13:18:41;;;;;;;3.20;1.00;;;;;;;;;;5082955;28;20040;-80
2022/08/23 13:21:19;;;;;;;1.58;1.00;;;;;;;;;;5069451;28;20036;-83
2022/08/23 13:23:45;;;;;;;4.32;1.08;;;;;;;;;;5074063;28;20454;-83
2022/08/23 13:26:28;;;;;;;2.65;0.90;;;;;;;;;;5074821;28;20131;-81
2022/08/23 13:29:08;;;;;;;3.28;0.80;;;;;;;;;;5080040;28;20036;-81
2022/08/23 13:31:55;;;;;;;1.90;1.00;;;;;;;;;;5083305;28;20111;-81
2022/08/23 13:34:30;;;;;;;3.30;1.10;;;;;;;;;;5074955;28;20118;-82
2022/08/23 13:36:57;;;;;;;1.60;0.70;;;;;;;;;;5079668;28;20028;-80
2022/08/23 13:39:23;;;;;;;2.47;0.98;;;;;;;;;;5072023;28;20101;-86
2022/08/23 13:41:49;;;;;;;3.05;1.08;;;;;;;;;;5076519;28;20036;-84
2022/08/23 13:44:18;;;;;;;2.17;0.95;;;;;;;;;;5074746;28;20047;-82
2022/08/23 13:46:44;;;;;;;;;;;;;;;;;;5071440;28;20099;-82
2022/08/23 13:49:12;;;;;;;1.83;0.80;;;;;;;;;;5071883;28;19955;-84
2022/08/23 13:51:44;;;;;;;1.35;0.90;;;;;;;;;;5076877;28;20029;-86
2022/08/23 13:54:11;;;;;;;2.83;0.98;;;;;;;;;;5071035;28;20064;-83
2022/08/23 13:57:00;;;;;;;3.03;1.00;;;;;;;;;;5086164;28;20032;-88
2022/08/23 13:59:29;;;;;;;2.13;0.90;;;;;;;;;;5078101;28;20032;-86
2022/08/23 14:01:56;;;;;;;4.97;1.23;;;;;;;;;;5083437;28;20020;-85
2022/08/23 14:04:22;;;;;;;2.42;1.02;;;;;;;;;;5074634;28;20389;-87
2022/08/23 14:06:47;;;;;;;2.60;1.00;;;;;;;;;;5077708;28;20024;-87
2022/08/23 14:09:14;;;;;;;2.67;1.20;;;;;;;;;;5083326;28;20039;-88
2022/08/23 14:11:40;;;;;;;2.95;1.10;;;;;;;;;;5075151;28;20028;-87
2022/08/23 14:14:06;;;;;;;1.67;0.88;;;;;;;;;;5080064;28;20143;-87
2022/08/23 14:16:33;;;;;;;3.08;1.10;;;;;;;;;;5079135;28;20039;-89
2022/08/23 14:19:00;;;;;;;1.52;0.90;;;;;;;;;;5073190;28;20395;-86
2022/08/23 14:21:26;;;;;;;1.10;0.80;;;;;;;;;;5072920;28;20078;-88
2022/08/23 14:23:52;;;;;;;1.98;0.95;;;;;;;;;;5078852;28;20017;-89
2022/08/23 14:26:22;;;;;;;1.58;0.98;;;;;;;;;;5080719;28;20052;-88
2022/08/23 14:28:47;;;;;;;2.60;1.00;;;;;;;;;;5077702;28;20059;-87
2022/08/23 14:31:14;;;;;;;2.47;1.02;;;;;;;;;;5077775;28;20063;-89
2022/08/23 14:33:40;;;;;;;1.88;0.95;;;;;;;;;;5081438;28;20470;-87
2022/08/23 14:36:06;;;;;;;2.92;0.90;;;;;;;;;;5073487;28;20402;-88
2022/08/23 14:38:32;;;;;;;1.65;1.05;;;;;;;;;;5075680;28;20029;-89
2022/08/23 14:41:02;;;;;;;1.33;1.00;;;;;;;;;;5076603;28;20553;-86
2022/08/23 14:43:28;;;;;;;1.30;0.88;;;;;;;;;;5073857;28;20016;-87
2022/08/23 14:45:55;;;;;;;1.75;1.27;;;;;;;;;;5077995;28;20079;-87
2022/08/23 14:48:22;;;;;;;1.98;1.30;;;;;;;;;;5090049;28;20459;-83
2022/08/23 14:50:48;;;;;;;2.15;1.05;;;;;;;;;;5072701;28;20048;-87
2022/08/23 14:53:15;;;;;;;2.17;0.90;;;;;;;;;;5077143;28;20028;-88
2022/08/23 14:55:41;;;;;;;1.40;0.82;;;;;;;;;;5079574;28;20032;-89
2022/08/23 14:58:07;;;;;;;1.13;0.80;;;;;;;;;;5085556;28;20073;-88
2022/08/23 15:00:34;;;;;;;2.00;0.73;;;;;;;;;;5091840;28;20381;-88
2022/08/23 15:03:00;;;;;;;3.95;1.00;;;;;;;;;;5090178;28;20028;-87